sensor_id;sensor_type;location;lat;lon;timestamp;P1;durP1;ratioP1;P2;durP2;ratioP2
60494;SDS011;46342;49.046;11.920;2023-08-31T00:02:20;0.90;;;0.90;;
60494;SDS011;46342;49.046;11.920;2023-08-31T00:04:45;0.95;;;0.88;;
60494;SDS011;46342;49.046;11.920;2023-08-31T00:07:11;1.60;;;1.00;;
60494;SDS011;46342;49.046;11.920;2023-08-31T00:09:36;1.17;;;0.80;;
60494;SDS011;46342;49.046;11.920;2023-08-31T00:12:02;0.80;;;0.80;;
60494;SDS011;46342;49.046;11.920;2023-08-31T00:14:28;1.15;;;1.05;;
60494;SDS011;46342;49.046;11.920;2023-08-31T00:16:54;1.90;;;0.80;;
60494;SDS011;46342;49.046;11.920;2023-08-31T00:19:22;1.85;;;0.90;;
60494;SDS011;46342;49.046;11.920;2023-08-31T00:21:48;1.88;;;1.00;;
60494;SDS011;46342;49.046;11.920;2023-08-31T00:24:13;0.77;;;0.77;;
60494;SDS011;46342;49.046;11.920;2023-08-31T00:26:39;0.93;;;0.75;;
60494;SDS011;46342;49.046;11.920;2023-08-31T00:29:06;1.73;;;0.90;;
60494;SDS011;46342;49.046;11.920;2023-08-31T00:31:32;1.00;;;0.90;;
60494;SDS011;46342;49.046;11.920;2023-08-31T00:33:58;0.80;;;0.80;;
60494;SDS011;46342;49.046;11.920;2023-08-31T00:36:28;0.98;;;0.82;;
60494;SDS011;46342;49.046;11.920;2023-08-31T00:38:54;0.70;;;0.70;;
60494;SDS011;46342;49.046;11.920;2023-08-31T00:41:20;0.88;;;0.80;;
60494;SDS011;46342;49.046;11.920;2023-08-31T00:43:47;1.70;;;0.93;;
60494;SDS011;46342;49.046;11.920;2023-08-31T00:46:12;4.97;;;0.90;;
60494;SDS011;46342;49.046;11.920;2023-08-31T00:48:39;0.80;;;0.80;;
60494;SDS011;46342;49.046;11.920;2023-08-31T00:51:05;1.48;;;1.05;;
60494;SDS011;46342;49.046;11.920;2023-08-31T00:53:32;0.80;;;0.80;;
60494;SDS011;46342;49.046;11.920;2023-08-31T00:55:58;1.60;;;0.82;;
60494;SDS011;46342;49.046;11.920;2023-08-31T00:58:24;0.80;;;0.80;;
60494;SDS011;46342;49.046;11.920;2023-08-31T01:07:00;0.70;;;0.70;;
60494;SDS011;46342;49.046;11.920;2023-08-31T01:09:50;1.10;;;0.98;;
60494;SDS011;46342;49.046;11.920;2023-08-31T01:12:24;1.08;;;0.98;;
60494;SDS011;46342;49.046;11.920;2023-08-31T01:15:04;0.80;;;0.80;;
60494;SDS011;46342;49.046;11.920;2023-08-31T01:17:37;0.77;;;0.77;;
60494;SDS011;46342;49.046;11.920;2023-08-31T01:20:07;0.80;;;0.80;;
60494;SDS011;46342;49.046;11.920;2023-08-31T01:22:43;1.10;;;1.10;;
60494;SDS011;46342;49.046;11.920;2023-08-31T01:25:28;0.90;;;0.90;;
60494;SDS011;46342;49.046;11.920;2023-08-31T01:27:55;0.85;;;0.85;;
60494;SDS011;46342;49.046;11.920;2023-08-31T01:30:21;0.98;;;0.98;;
60494;SDS011;46342;49.046;11.920;2023-08-31T01:32:47;0.98;;;0.93;;
60494;SDS011;46342;49.046;11.920;2023-08-31T01:35:13;1.05;;;0.95;;
60494;SDS011;46342;49.046;11.920;2023-08-31T01:37:51;0.88;;;0.88;;
60494;SDS011;46342;49.046;11.920;2023-08-31T01:40:26;1.02;;;0.93;;
60494;SDS011;46342;49.046;11.920;2023-08-31T01:43:00;0.77;;;0.77;;
60494;SDS011;46342;49.046;11.920;2023-08-31T01:45:27;3.03;;;1.15;;
60494;SDS011;46342;49.046;11.920;2023-08-31T01:47:54;0.80;;;0.80;;
60494;SDS011;46342;49.046;11.920;2023-08-31T01:50:21;0.98;;;0.85;;
60494;SDS011;46342;49.046;11.920;2023-08-31T01:52:46;0.80;;;0.80;;
60494;SDS011;46342;49.046;11.920;2023-08-31T01:55:12;0.70;;;0.70;;
60494;SDS011;46342;49.046;11.920;2023-08-31T01:57:40;0.70;;;0.70;;
60494;SDS011;46342;49.046;11.920;2023-08-31T02:00:06;0.70;;;0.70;;
60494;SDS011;46342;49.046;11.920;2023-08-31T02:02:34;0.80;;;0.80;;
60494;SDS011;46342;49.046;11.920;2023-08-31T02:05:00;0.80;;;0.80;;
60494;SDS011;46342;49.046;11.920;2023-08-31T02:07:27;4.88;;;0.93;;
60494;SDS011;46342;49.046;11.920;2023-08-31T02:09:52;1.10;;;1.00;;
60494;SDS011;46342;49.046;11.920;2023-08-31T02:12:18;0.98;;;0.73;;
60494;SDS011;46342;49.046;11.920;2023-08-31T02:14:43;0.75;;;0.75;;
60494;SDS011;46342;49.046;11.920;2023-08-31T02:17:09;0.85;;;0.85;;
60494;SDS011;46342;49.046;11.920;2023-08-31T02:19:34;0.95;;;0.90;;
60494;SDS011;46342;49.046;11.920;2023-08-31T02:22:00;0.85;;;0.85;;
60494;SDS011;46342;49.046;11.920;2023-08-31T02:24:25;0.70;;;0.70;;
60494;SDS011;46342;49.046;11.920;2023-08-31T02:26:51;0.70;;;0.70;;
60494;SDS011;46342;49.046;11.920;2023-08-31T02:29:17;0.70;;;0.70;;
60494;SDS011;46342;49.046;11.920;2023-08-31T02:31:42;1.65;;;0.95;;
60494;SDS011;46342;49.046;11.920;2023-08-31T02:34:08;2.67;;;1.67;;
60494;SDS011;46342;49.046;11.920;2023-08-31T02:36:33;1.08;;;0.80;;
60494;SDS011;46342;49.046;11.920;2023-08-31T02:38:59;0.70;;;0.70;;
60494;SDS011;46342;49.046;11.920;2023-08-31T02:41:24;1.45;;;0.85;;
60494;SDS011;46342;49.046;11.920;2023-08-31T02:43:50;1.00;;;0.90;;
60494;SDS011;46342;49.046;11.920;2023-08-31T02:46:17;0.60;;;0.60;;
60494;SDS011;46342;49.046;11.920;2023-08-31T02:48:43;0.70;;;0.70;;
60494;SDS011;46342;49.046;11.920;2023-08-31T02:51:09;1.08;;;0.88;;
60494;SDS011;46342;49.046;11.920;2023-08-31T02:53:35;1.67;;;0.90;;
60494;SDS011;46342;49.046;11.920;2023-08-31T02:56:00;1.55;;;1.00;;
60494;SDS011;46342;49.046;11.920;2023-08-31T02:58:26;1.33;;;1.20;;
60494;SDS011;46342;49.046;11.920;2023-08-31T03:00:51;1.88;;;1.00;;
60494;SDS011;46342;49.046;11.920;2023-08-31T03:03:18;1.00;;;1.00;;
60494;SDS011;46342;49.046;11.920;2023-08-31T03:05:44;0.70;;;0.70;;
60494;SDS011;46342;49.046;11.920;2023-08-31T03:08:10;0.80;;;0.80;;
60494;SDS011;46342;49.046;11.920;2023-08-31T03:10:36;0.82;;;0.82;;
60494;SDS011;46342;49.046;11.920;2023-08-31T03:13:03;0.80;;;0.80;;
60494;SDS011;46342;49.046;11.920;2023-08-31T03:15:29;0.80;;;0.80;;
60494;SDS011;46342;49.046;11.920;2023-08-31T03:17:57;1.20;;;1.10;;
60494;SDS011;46342;49.046;11.920;2023-08-31T03:20:22;0.93;;;0.88;;
60494;SDS011;46342;49.046;11.920;2023-08-31T03:22:48;0.80;;;0.80;;
60494;SDS011;46342;49.046;11.920;2023-08-31T03:25:13;1.27;;;0.90;;
60494;SDS011;46342;49.046;11.920;2023-08-31T03:27:39;0.95;;;0.90;;
60494;SDS011;46342;49.046;11.920;2023-08-31T03:30:05;4.22;;;1.05;;
60494;SDS011;46342;49.046;11.920;2023-08-31T03:32:31;0.90;;;0.90;;
60494;SDS011;46342;49.046;11.920;2023-08-31T03:34:56;0.80;;;0.80;;
60494;SDS011;46342;49.046;11.920;2023-08-31T03:37:22;0.90;;;0.90;;
60494;SDS011;46342;49.046;11.920;2023-08-31T03:39:47;1.10;;;1.00;;
60494;SDS011;46342;49.046;11.920;2023-08-31T03:42:13;0.90;;;0.88;;
60494;SDS011;46342;49.046;11.920;2023-08-31T03:44:39;0.90;;;0.90;;
60494;SDS011;46342;49.046;11.920;2023-08-31T03:47:04;1.02;;;0.93;;
60494;SDS011;46342;49.046;11.920;2023-08-31T03:49:30;0.80;;;0.80;;
60494;SDS011;46342;49.046;11.920;2023-08-31T03:51:57;0.98;;;0.88;;
60494;SDS011;46342;49.046;11.920;2023-08-31T03:54:23;0.98;;;0.98;;
60494;SDS011;46342;49.046;11.920;2023-08-31T03:56:48;0.90;;;0.90;;
60494;SDS011;46342;49.046;11.920;2023-08-31T03:59:14;0.80;;;0.80;;
60494;SDS011;46342;49.046;11.920;2023-08-31T04:01:39;0.98;;;0.90;;
60494;SDS011;46342;49.046;11.920;2023-08-31T04:04:05;1.20;;;1.00;;
60494;SDS011;46342;49.046;11.920;2023-08-31T04:06:31;0.90;;;0.90;;
60494;SDS011;46342;49.046;11.920;2023-08-31T04:08:56;1.08;;;1.00;;
60494;SDS011;46342;49.046;11.920;2023-08-31T04:11:22;1.20;;;1.10;;
60494;SDS011;46342;49.046;11.920;2023-08-31T04:13:49;0.90;;;0.90;;
60494;SDS011;46342;49.046;11.920;2023-08-31T04:16:15;4.13;;;1.13;;
60494;SDS011;46342;49.046;11.920;2023-08-31T04:18:40;0.98;;;0.88;;
60494;SDS011;46342;49.046;11.920;2023-08-31T04:21:06;0.90;;;0.90;;
60494;SDS011;46342;49.046;11.920;2023-08-31T04:23:31;0.80;;;0.80;;
60494;SDS011;46342;49.046;11.920;2023-08-31T04:25:57;0.90;;;0.90;;
60494;SDS011;46342;49.046;11.920;2023-08-31T04:28:23;1.38;;;0.93;;
60494;SDS011;46342;49.046;11.920;2023-08-31T04:30:49;1.17;;;1.10;;
60494;SDS011;46342;49.046;11.920;2023-08-31T04:33:14;1.02;;;0.90;;
60494;SDS011;46342;49.046;11.920;2023-08-31T04:35:41;0.90;;;0.90;;
60494;SDS011;46342;49.046;11.920;2023-08-31T04:38:06;1.38;;;0.82;;
60494;SDS011;46342;49.046;11.920;2023-08-31T04:40:32;0.88;;;0.88;;
60494;SDS011;46342;49.046;11.920;2023-08-31T04:42:58;1.20;;;1.08;;
60494;SDS011;46342;49.046;11.920;2023-08-31T04:45:23;0.90;;;0.90;;
60494;SDS011;46342;49.046;11.920;2023-08-31T04:47:49;0.90;;;0.90;;
60494;SDS011;46342;49.046;11.920;2023-08-31T04:50:16;1.23;;;1.13;;
60494;SDS011;46342;49.046;11.920;2023-08-31T04:52:42;1.30;;;1.00;;
60494;SDS011;46342;49.046;11.920;2023-08-31T04:55:07;1.02;;;0.93;;
60494;SDS011;46342;49.046;11.920;2023-08-31T04:57:33;0.90;;;0.90;;
60494;SDS011;46342;49.046;11.920;2023-08-31T04:59:59;1.08;;;1.00;;
60494;SDS011;46342;49.046;11.920;2023-08-31T05:02:25;3.90;;;1.10;;
60494;SDS011;46342;49.046;11.920;2023-08-31T05:04:50;1.27;;;1.10;;
60494;SDS011;46342;49.046;11.920;2023-08-31T05:07:16;1.00;;;0.90;;
60494;SDS011;46342;49.046;11.920;2023-08-31T05:09:42;1.02;;;1.02;;
60494;SDS011;46342;49.046;11.920;2023-08-31T05:12:07;1.55;;;1.10;;
60494;SDS011;46342;49.046;11.920;2023-08-31T05:14:33;0.90;;;0.90;;
60494;SDS011;46342;49.046;11.920;2023-08-31T05:17:02;1.00;;;1.00;;
60494;SDS011;46342;49.046;11.920;2023-08-31T05:19:29;1.30;;;1.20;;
60494;SDS011;46342;49.046;11.920;2023-08-31T05:21:55;1.15;;;1.05;;
60494;SDS011;46342;49.046;11.920;2023-08-31T05:24:20;1.20;;;1.10;;
60494;SDS011;46342;49.046;11.920;2023-08-31T05:26:46;1.00;;;0.90;;
60494;SDS011;46342;49.046;11.920;2023-08-31T05:29:11;1.10;;;1.00;;
60494;SDS011;46342;49.046;11.920;2023-08-31T05:31:37;1.00;;;1.00;;
60494;SDS011;46342;49.046;11.920;2023-08-31T05:34:03;1.63;;;0.90;;
60494;SDS011;46342;49.046;11.920;2023-08-31T05:36:28;2.05;;;0.85;;
60494;SDS011;46342;49.046;11.920;2023-08-31T05:38:54;1.40;;;1.30;;
60494;SDS011;46342;49.046;11.920;2023-08-31T05:41:19;2.28;;;0.93;;
60494;SDS011;46342;49.046;11.920;2023-08-31T05:43:46;1.13;;;1.02;;
60494;SDS011;46342;49.046;11.920;2023-08-31T05:46:11;0.90;;;0.90;;
60494;SDS011;46342;49.046;11.920;2023-08-31T05:48:37;1.42;;;1.08;;
60494;SDS011;46342;49.046;11.920;2023-08-31T05:51:02;0.90;;;0.90;;
60494;SDS011;46342;49.046;11.920;2023-08-31T05:53:31;1.10;;;1.00;;
60494;SDS011;46342;49.046;11.920;2023-08-31T05:55:57;0.98;;;0.93;;
60494;SDS011;46342;49.046;11.920;2023-08-31T05:58:30;0.98;;;0.95;;
60494;SDS011;46342;49.046;11.920;2023-08-31T06:00:57;1.67;;;1.10;;
60494;SDS011;46342;49.046;11.920;2023-08-31T06:03:22;1.10;;;1.05;;
60494;SDS011;46342;49.046;11.920;2023-08-31T06:05:48;2.13;;;1.20;;
60494;SDS011;46342;49.046;11.920;2023-08-31T06:08:13;1.30;;;1.15;;
60494;SDS011;46342;49.046;11.920;2023-08-31T06:10:39;1.42;;;1.10;;
60494;SDS011;46342;49.046;11.920;2023-08-31T06:13:04;1.23;;;1.13;;
60494;SDS011;46342;49.046;11.920;2023-08-31T06:15:30;1.30;;;1.20;;
60494;SDS011;46342;49.046;11.920;2023-08-31T06:17:55;2.90;;;1.45;;
60494;SDS011;46342;49.046;11.920;2023-08-31T06:20:21;2.08;;;1.30;;
60494;SDS011;46342;49.046;11.920;2023-08-31T06:22:47;1.00;;;1.00;;
60494;SDS011;46342;49.046;11.920;2023-08-31T06:25:13;1.38;;;1.17;;
60494;SDS011;46342;49.046;11.920;2023-08-31T06:27:41;1.30;;;1.00;;
60494;SDS011;46342;49.046;11.920;2023-08-31T06:30:08;1.30;;;1.20;;
60494;SDS011;46342;49.046;11.920;2023-08-31T06:32:34;2.53;;;1.15;;
60494;SDS011;46342;49.046;11.920;2023-08-31T06:34:59;2.72;;;1.08;;
60494;SDS011;46342;49.046;11.920;2023-08-31T06:37:25;1.45;;;1.30;;
60494;SDS011;46342;49.046;11.920;2023-08-31T06:39:50;1.25;;;1.13;;
60494;SDS011;46342;49.046;11.920;2023-08-31T06:42:16;2.13;;;1.38;;
60494;SDS011;46342;49.046;11.920;2023-08-31T06:44:41;1.48;;;1.13;;
60494;SDS011;46342;49.046;11.920;2023-08-31T06:47:07;1.33;;;1.23;;
60494;SDS011;46342;49.046;11.920;2023-08-31T06:49:33;1.50;;;1.40;;
60494;SDS011;46342;49.046;11.920;2023-08-31T06:52:02;2.75;;;1.70;;
60494;SDS011;46342;49.046;11.920;2023-08-31T06:54:28;2.53;;;1.73;;
60494;SDS011;46342;49.046;11.920;2023-08-31T06:56:53;1.25;;;1.15;;
60494;SDS011;46342;49.046;11.920;2023-08-31T06:59:19;1.38;;;1.27;;
60494;SDS011;46342;49.046;11.920;2023-08-31T07:01:44;1.30;;;1.20;;
60494;SDS011;46342;49.046;11.920;2023-08-31T07:04:10;2.08;;;1.30;;
60494;SDS011;46342;49.046;11.920;2023-08-31T07:06:36;1.77;;;1.23;;
60494;SDS011;46342;49.046;11.920;2023-08-31T07:09:01;1.63;;;1.20;;
60494;SDS011;46342;49.046;11.920;2023-08-31T07:11:30;1.48;;;1.38;;
60494;SDS011;46342;49.046;11.920;2023-08-31T07:13:56;1.50;;;1.40;;
60494;SDS011;46342;49.046;11.920;2023-08-31T07:16:22;2.83;;;1.25;;
60494;SDS011;46342;49.046;11.920;2023-08-31T07:18:48;1.85;;;1.30;;
60494;SDS011;46342;49.046;11.920;2023-08-31T07:21:13;2.72;;;1.30;;
60494;SDS011;46342;49.046;11.920;2023-08-31T07:23:39;1.30;;;1.20;;
60494;SDS011;46342;49.046;11.920;2023-08-31T07:26:04;2.65;;;1.30;;
60494;SDS011;46342;49.046;11.920;2023-08-31T07:28:30;1.67;;;1.40;;
60494;SDS011;46342;49.046;11.920;2023-08-31T07:31:05;1.40;;;1.25;;
60494;SDS011;46342;49.046;11.920;2023-08-31T07:33:32;1.67;;;1.23;;
60494;SDS011;46342;49.046;11.920;2023-08-31T07:35:59;2.45;;;1.02;;
60494;SDS011;46342;49.046;11.920;2023-08-31T07:38:26;2.83;;;1.10;;
60494;SDS011;46342;49.046;11.920;2023-08-31T07:40:52;3.45;;;1.30;;
60494;SDS011;46342;49.046;11.920;2023-08-31T07:43:18;2.38;;;1.30;;
60494;SDS011;46342;49.046;11.920;2023-08-31T07:45:44;1.45;;;1.30;;
60494;SDS011;46342;49.046;11.920;2023-08-31T07:48:09;2.58;;;1.10;;
60494;SDS011;46342;49.046;11.920;2023-08-31T07:50:35;2.80;;;1.20;;
60494;SDS011;46342;49.046;11.920;2023-08-31T07:53:00;2.03;;;1.20;;
60494;SDS011;46342;49.046;11.920;2023-08-31T07:55:26;1.27;;;1.10;;
60494;SDS011;46342;49.046;11.920;2023-08-31T07:57:52;2.60;;;1.23;;
60494;SDS011;46342;49.046;11.920;2023-08-31T08:00:17;1.00;;;1.00;;
60494;SDS011;46342;49.046;11.920;2023-08-31T08:02:46;1.98;;;1.20;;
60494;SDS011;46342;49.046;11.920;2023-08-31T08:05:12;1.45;;;1.10;;
60494;SDS011;46342;49.046;11.920;2023-08-31T08:07:37;2.78;;;1.02;;
60494;SDS011;46342;49.046;11.920;2023-08-31T08:10:03;0.98;;;0.93;;
60494;SDS011;46342;49.046;11.920;2023-08-31T08:12:38;1.45;;;1.10;;
60494;SDS011;46342;49.046;11.920;2023-08-31T08:15:04;1.42;;;1.00;;
60494;SDS011;46342;49.046;11.920;2023-08-31T08:17:32;1.23;;;1.05;;
60494;SDS011;46342;49.046;11.920;2023-08-31T08:19:58;0.90;;;0.90;;
60494;SDS011;46342;49.046;11.920;2023-08-31T08:22:24;3.53;;;1.42;;
60494;SDS011;46342;49.046;11.920;2023-08-31T08:24:50;1.58;;;1.10;;
60494;SDS011;46342;49.046;11.920;2023-08-31T08:27:15;1.35;;;0.95;;
60494;SDS011;46342;49.046;11.920;2023-08-31T08:29:43;2.13;;;0.90;;
60494;SDS011;46342;49.046;11.920;2023-08-31T08:32:08;1.10;;;0.93;;
60494;SDS011;46342;49.046;11.920;2023-08-31T08:34:34;1.45;;;0.75;;
60494;SDS011;46342;49.046;11.920;2023-08-31T08:37:00;4.10;;;0.95;;
60494;SDS011;46342;49.046;11.920;2023-08-31T08:39:25;2.60;;;1.02;;
60494;SDS011;46342;49.046;11.920;2023-08-31T08:41:51;1.95;;;0.90;;
60494;SDS011;46342;49.046;11.920;2023-08-31T08:44:20;0.85;;;0.80;;
60494;SDS011;46342;49.046;11.920;2023-08-31T08:46:50;1.52;;;1.02;;
60494;SDS011;46342;49.046;11.920;2023-08-31T08:49:17;2.47;;;0.88;;
60494;SDS011;46342;49.046;11.920;2023-08-31T08:51:44;1.13;;;0.80;;
60494;SDS011;46342;49.046;11.920;2023-08-31T08:56:37;1.33;;;0.75;;
60494;SDS011;46342;49.046;11.920;2023-08-31T08:59:03;4.10;;;0.90;;
60494;SDS011;46342;49.046;11.920;2023-08-31T09:01:29;1.85;;;0.88;;
60494;SDS011;46342;49.046;11.920;2023-08-31T09:03:55;0.80;;;0.80;;
60494;SDS011;46342;49.046;11.920;2023-08-31T09:06:22;1.35;;;0.80;;
60494;SDS011;46342;49.046;11.920;2023-08-31T09:08:53;2.05;;;0.80;;
60494;SDS011;46342;49.046;11.920;2023-08-31T09:11:20;1.10;;;0.90;;
60494;SDS011;46342;49.046;11.920;2023-08-31T09:13:47;1.95;;;0.90;;
60494;SDS011;46342;49.046;11.920;2023-08-31T09:16:28;0.82;;;0.82;;
60494;SDS011;46342;49.046;11.920;2023-08-31T09:18:55;1.92;;;0.80;;
60494;SDS011;46342;49.046;11.920;2023-08-31T09:21:21;1.88;;;0.98;;
60494;SDS011;46342;49.046;11.920;2023-08-31T09:23:55;1.73;;;1.00;;
60494;SDS011;46342;49.046;11.920;2023-08-31T09:26:24;2.40;;;0.73;;
60494;SDS011;46342;49.046;11.920;2023-08-31T09:28:50;1.45;;;0.70;;
60494;SDS011;46342;49.046;11.920;2023-08-31T09:31:16;1.15;;;0.80;;
60494;SDS011;46342;49.046;11.920;2023-08-31T09:33:49;1.08;;;0.70;;
60494;SDS011;46342;49.046;11.920;2023-08-31T09:36:16;1.05;;;0.93;;
60494;SDS011;46342;49.046;11.920;2023-08-31T09:38:42;1.40;;;0.80;;
60494;SDS011;46342;49.046;11.920;2023-08-31T09:41:10;3.63;;;0.90;;
60494;SDS011;46342;49.046;11.920;2023-08-31T09:43:36;2.20;;;1.00;;
60494;SDS011;46342;49.046;11.920;2023-08-31T09:46:03;0.98;;;0.90;;
60494;SDS011;46342;49.046;11.920;2023-08-31T09:48:30;0.77;;;0.60;;
60494;SDS011;46342;49.046;11.920;2023-08-31T09:50:56;1.23;;;0.80;;
60494;SDS011;46342;49.046;11.920;2023-08-31T09:53:23;2.35;;;0.80;;
60494;SDS011;46342;49.046;11.920;2023-08-31T09:55:50;0.93;;;0.70;;
60494;SDS011;46342;49.046;11.920;2023-08-31T09:58:20;1.20;;;0.80;;
60494;SDS011;46342;49.046;11.920;2023-08-31T10:00:46;2.03;;;1.27;;
60494;SDS011;46342;49.046;11.920;2023-08-31T10:03:14;1.42;;;0.88;;
60494;SDS011;46342;49.046;11.920;2023-08-31T10:05:41;1.50;;;0.85;;
60494;SDS011;46342;49.046;11.920;2023-08-31T10:10:34;1.08;;;0.93;;
60494;SDS011;46342;49.046;11.920;2023-08-31T10:13:02;0.82;;;0.65;;
60494;SDS011;46342;49.046;11.920;2023-08-31T10:15:31;0.80;;;0.70;;
60494;SDS011;46342;49.046;11.920;2023-08-31T10:18:04;0.82;;;0.68;;
60494;SDS011;46342;49.046;11.920;2023-08-31T10:20:32;0.93;;;0.80;;
60494;SDS011;46342;49.046;11.920;2023-08-31T10:22:59;1.38;;;0.60;;
60494;SDS011;46342;49.046;11.920;2023-08-31T10:25:42;1.27;;;0.90;;
60494;SDS011;46342;49.046;11.920;2023-08-31T10:28:20;0.70;;;0.70;;
60494;SDS011;46342;49.046;11.920;2023-08-31T10:33:30;2.38;;;0.88;;
60494;SDS011;46342;49.046;11.920;2023-08-31T10:36:00;1.20;;;0.80;;
60494;SDS011;46342;49.046;11.920;2023-08-31T10:38:27;0.60;;;0.60;;
60494;SDS011;46342;49.046;11.920;2023-08-31T10:43:25;0.85;;;0.70;;
60494;SDS011;46342;49.046;11.920;2023-08-31T10:45:50;1.02;;;0.80;;
60494;SDS011;46342;49.046;11.920;2023-08-31T10:48:17;0.70;;;0.70;;
60494;SDS011;46342;49.046;11.920;2023-08-31T10:50:42;1.30;;;0.80;;
60494;SDS011;46342;49.046;11.920;2023-08-31T10:53:12;1.23;;;0.73;;
60494;SDS011;46342;49.046;11.920;2023-08-31T10:55:53;0.90;;;0.60;;
60494;SDS011;46342;49.046;11.920;2023-08-31T10:58:19;1.48;;;0.70;;
60494;SDS011;46342;49.046;11.920;2023-08-31T11:00:52;1.42;;;0.70;;
60494;SDS011;46342;49.046;11.920;2023-08-31T11:03:18;5.43;;;1.00;;
60494;SDS011;46342;49.046;11.920;2023-08-31T11:05:53;1.02;;;0.60;;
60494;SDS011;46342;49.046;11.920;2023-08-31T11:08:22;1.13;;;1.00;;
60494;SDS011;46342;49.046;11.920;2023-08-31T11:10:48;1.25;;;1.15;;
60494;SDS011;46342;49.046;11.920;2023-08-31T11:13:18;1.23;;;0.90;;
60494;SDS011;46342;49.046;11.920;2023-08-31T11:15:47;1.27;;;0.70;;
60494;SDS011;46342;49.046;11.920;2023-08-31T11:18:14;0.85;;;0.68;;
60494;SDS011;46342;49.046;11.920;2023-08-31T11:20:43;2.25;;;0.75;;
60494;SDS011;46342;49.046;11.920;2023-08-31T11:23:09;1.35;;;0.75;;
60494;SDS011;46342;49.046;11.920;2023-08-31T11:25:35;0.90;;;0.80;;
60494;SDS011;46342;49.046;11.920;2023-08-31T11:28:02;0.90;;;0.70;;
60494;SDS011;46342;49.046;11.920;2023-08-31T11:30:35;0.98;;;0.70;;
60494;SDS011;46342;49.046;11.920;2023-08-31T11:33:08;1.15;;;0.80;;
60494;SDS011;46342;49.046;11.920;2023-08-31T11:35:37;1.05;;;0.80;;
60494;SDS011;46342;49.046;11.920;2023-08-31T11:38:05;1.65;;;0.80;;
60494;SDS011;46342;49.046;11.920;2023-08-31T11:40:31;0.88;;;0.65;;
60494;SDS011;46342;49.046;11.920;2023-08-31T11:42:58;1.63;;;0.70;;
60494;SDS011;46342;49.046;11.920;2023-08-31T11:45:28;0.57;;;0.57;;
60494;SDS011;46342;49.046;11.920;2023-08-31T11:47:54;1.42;;;0.95;;
60494;SDS011;46342;49.046;11.920;2023-08-31T11:50:21;1.10;;;0.85;;
60494;SDS011;46342;49.046;11.920;2023-08-31T11:52:47;1.85;;;0.73;;
60494;SDS011;46342;49.046;11.920;2023-08-31T11:55:14;0.77;;;0.50;;
60494;SDS011;46342;49.046;11.920;2023-08-31T11:57:47;0.52;;;0.52;;
60494;SDS011;46342;49.046;11.920;2023-08-31T12:00:16;0.95;;;0.80;;
60494;SDS011;46342;49.046;11.920;2023-08-31T12:02:42;0.68;;;0.68;;
60494;SDS011;46342;49.046;11.920;2023-08-31T12:05:11;0.68;;;0.68;;
60494;SDS011;46342;49.046;11.920;2023-08-31T12:07:40;0.98;;;0.73;;
60494;SDS011;46342;49.046;11.920;2023-08-31T12:10:06;0.88;;;0.70;;
60494;SDS011;46342;49.046;11.920;2023-08-31T12:12:33;1.13;;;0.80;;
60494;SDS011;46342;49.046;11.920;2023-08-31T12:15:01;1.08;;;0.73;;
60494;SDS011;46342;49.046;11.920;2023-08-31T12:17:28;0.80;;;0.80;;
60494;SDS011;46342;49.046;11.920;2023-08-31T12:20:01;0.60;;;0.60;;
60494;SDS011;46342;49.046;11.920;2023-08-31T12:22:29;0.73;;;0.73;;
60494;SDS011;46342;49.046;11.920;2023-08-31T12:24:55;1.95;;;0.80;;
60494;SDS011;46342;49.046;11.920;2023-08-31T12:27:21;2.53;;;0.80;;
60494;SDS011;46342;49.046;11.920;2023-08-31T12:29:46;2.15;;;0.77;;
60494;SDS011;46342;49.046;11.920;2023-08-31T12:32:12;2.13;;;1.00;;
60494;SDS011;46342;49.046;11.920;2023-08-31T12:34:37;0.80;;;0.80;;
60494;SDS011;46342;49.046;11.920;2023-08-31T12:37:03;0.73;;;0.70;;
60494;SDS011;46342;49.046;11.920;2023-08-31T12:39:29;2.95;;;0.88;;
60494;SDS011;46342;49.046;11.920;2023-08-31T12:41:55;0.80;;;0.80;;
60494;SDS011;46342;49.046;11.920;2023-08-31T12:44:21;1.63;;;1.08;;
60494;SDS011;46342;49.046;11.920;2023-08-31T12:46:47;0.80;;;0.80;;
60494;SDS011;46342;49.046;11.920;2023-08-31T12:49:12;1.27;;;0.85;;
60494;SDS011;46342;49.046;11.920;2023-08-31T12:51:38;1.95;;;0.70;;
60494;SDS011;46342;49.046;11.920;2023-08-31T12:54:03;0.98;;;0.70;;
60494;SDS011;46342;49.046;11.920;2023-08-31T12:56:29;2.20;;;0.98;;
60494;SDS011;46342;49.046;11.920;2023-08-31T12:58:54;1.08;;;0.95;;
60494;SDS011;46342;49.046;11.920;2023-08-31T13:01:20;0.93;;;0.80;;
60494;SDS011;46342;49.046;11.920;2023-08-31T13:03:47;0.85;;;0.80;;
60494;SDS011;46342;49.046;11.920;2023-08-31T13:06:14;0.90;;;0.80;;
60494;SDS011;46342;49.046;11.920;2023-08-31T13:08:41;1.73;;;1.02;;
60494;SDS011;46342;49.046;11.920;2023-08-31T13:11:08;1.52;;;0.77;;
60494;SDS011;46342;49.046;11.920;2023-08-31T13:13:34;1.02;;;0.80;;
60494;SDS011;46342;49.046;11.920;2023-08-31T13:16:00;1.70;;;0.80;;
60494;SDS011;46342;49.046;11.920;2023-08-31T13:18:25;1.50;;;0.82;;
60494;SDS011;46342;49.046;11.920;2023-08-31T13:20:51;0.80;;;0.80;;
60494;SDS011;46342;49.046;11.920;2023-08-31T13:23:18;0.70;;;0.70;;
60494;SDS011;46342;49.046;11.920;2023-08-31T13:25:44;0.80;;;0.80;;
60494;SDS011;46342;49.046;11.920;2023-08-31T13:28:10;0.82;;;0.82;;
60494;SDS011;46342;49.046;11.920;2023-08-31T13:30:36;1.13;;;1.00;;
60494;SDS011;46342;49.046;11.920;2023-08-31T13:33:01;1.17;;;0.93;;
60494;SDS011;46342;49.046;11.920;2023-08-31T13:35:29;1.42;;;1.10;;
60494;SDS011;46342;49.046;11.920;2023-08-31T13:37:55;1.10;;;1.00;;
60494;SDS011;46342;49.046;11.920;2023-08-31T13:40:20;2.10;;;1.05;;
60494;SDS011;46342;49.046;11.920;2023-08-31T13:42:55;1.02;;;1.00;;
60494;SDS011;46342;49.046;11.920;2023-08-31T13:45:24;0.80;;;0.80;;
60494;SDS011;46342;49.046;11.920;2023-08-31T13:47:50;3.20;;;0.95;;
60494;SDS011;46342;49.046;11.920;2023-08-31T13:50:16;1.35;;;1.10;;
60494;SDS011;46342;49.046;11.920;2023-08-31T13:52:41;1.83;;;0.90;;
60494;SDS011;46342;49.046;11.920;2023-08-31T13:55:07;0.95;;;0.80;;
60494;SDS011;46342;49.046;11.920;2023-08-31T13:57:33;0.80;;;0.80;;
60494;SDS011;46342;49.046;11.920;2023-08-31T13:59:59;1.10;;;1.00;;
60494;SDS011;46342;49.046;11.920;2023-08-31T14:02:25;1.20;;;0.90;;
60494;SDS011;46342;49.046;11.920;2023-08-31T14:04:50;1.48;;;0.93;;
60494;SDS011;46342;49.046;11.920;2023-08-31T14:07:16;2.45;;;1.05;;
60494;SDS011;46342;49.046;11.920;2023-08-31T14:09:42;0.77;;;0.77;;
60494;SDS011;46342;49.046;11.920;2023-08-31T14:12:07;1.13;;;1.00;;
60494;SDS011;46342;49.046;11.920;2023-08-31T14:14:34;1.40;;;0.90;;
60494;SDS011;46342;49.046;11.920;2023-08-31T14:16:59;1.77;;;1.15;;
60494;SDS011;46342;49.046;11.920;2023-08-31T14:19:25;2.10;;;1.00;;
60494;SDS011;46342;49.046;11.920;2023-08-31T14:21:51;1.95;;;0.93;;
60494;SDS011;46342;49.046;11.920;2023-08-31T14:24:18;0.88;;;0.88;;
60494;SDS011;46342;49.046;11.920;2023-08-31T14:26:44;2.35;;;1.20;;
60494;SDS011;46342;49.046;11.920;2023-08-31T14:29:10;1.33;;;1.00;;
60494;SDS011;46342;49.046;11.920;2023-08-31T14:31:35;1.48;;;0.98;;
60494;SDS011;46342;49.046;11.920;2023-08-31T14:34:01;1.00;;;0.90;;
60494;SDS011;46342;49.046;11.920;2023-08-31T14:36:27;1.15;;;0.90;;
60494;SDS011;46342;49.046;11.920;2023-08-31T14:38:52;1.58;;;0.90;;
60494;SDS011;46342;49.046;11.920;2023-08-31T14:41:18;2.33;;;1.05;;
60494;SDS011;46342;49.046;11.920;2023-08-31T14:43:43;1.10;;;0.80;;
60494;SDS011;46342;49.046;11.920;2023-08-31T14:46:09;0.90;;;0.80;;
60494;SDS011;46342;49.046;11.920;2023-08-31T14:48:34;1.55;;;1.15;;